createdAt,value
2023-04-15T00:01:12.083Z,6.10
2023-04-15T00:03:39.869Z,6.10
2023-04-15T00:06:07.915Z,6.20
2023-04-15T00:08:35.009Z,6.10
2023-04-15T00:11:05.820Z,6.10
2023-04-15T00:13:34.195Z,6.20
2023-04-15T00:16:02.319Z,6.10
2023-04-15T00:18:30.062Z,6.10
2023-04-15T00:20:57.234Z,6.10
2023-04-15T00:23:24.492Z,6.10
2023-04-15T00:25:52.042Z,6.10
2023-04-15T00:28:19.270Z,6.10
2023-04-15T00:30:47.291Z,6.10
2023-04-15T00:33:16.542Z,6.10
2023-04-15T00:35:43.695Z,6.00
2023-04-15T00:38:10.903Z,6.10
2023-04-15T00:40:38.555Z,6.00
2023-04-15T00:43:05.764Z,6.10
2023-04-15T00:45:33.481Z,6.10
2023-04-15T00:48:00.902Z,6.20
2023-04-15T00:50:27.993Z,6.10
2023-04-15T00:52:55.032Z,6.10
2023-04-15T00:55:22.184Z,6.10
2023-04-15T00:57:49.183Z,6.10
2023-04-15T01:00:16.642Z,6.10
2023-04-15T01:02:43.876Z,6.10
2023-04-15T01:05:11.908Z,6.20
2023-04-15T01:07:39.000Z,6.10
2023-04-15T01:10:08.260Z,6.10
2023-04-15T01:12:36.398Z,6.00
2023-04-15T01:15:04.025Z,6.10
2023-04-15T01:17:31.478Z,6.10
2023-04-15T01:19:58.941Z,6.00
2023-04-15T01:22:27.839Z,6.00
2023-04-15T01:25:06.263Z,6.00
2023-04-15T01:27:35.384Z,6.00
2023-04-15T01:30:05.386Z,6.00
2023-04-15T01:32:33.418Z,5.90
2023-04-15T01:35:00.626Z,5.90
2023-04-15T01:37:27.908Z,5.90
2023-04-15T01:39:55.136Z,5.90
2023-04-15T01:42:23.173Z,5.90
2023-04-15T01:44:50.202Z,5.90
2023-04-15T01:47:17.196Z,6.10
2023-04-15T01:49:44.227Z,5.90
2023-04-15T01:52:11.299Z,5.90
2023-04-15T01:54:41.059Z,5.90
2023-04-15T01:57:08.373Z,5.90
2023-04-15T01:59:35.888Z,5.90
2023-04-15T02:02:03.036Z,5.90
2023-04-15T02:04:30.282Z,5.90
2023-04-15T02:07:00.838Z,5.80
2023-04-15T02:09:28.049Z,5.80
2023-04-15T02:11:55.069Z,5.80
2023-04-15T02:14:22.218Z,5.70
2023-04-15T02:16:49.329Z,5.80
2023-04-15T02:19:16.729Z,5.70
2023-04-15T02:21:43.751Z,5.70
2023-04-15T02:24:12.229Z,5.80
2023-04-15T02:26:41.600Z,5.90
2023-04-15T02:29:08.694Z,5.70
2023-04-15T02:31:40.540Z,5.70
2023-04-15T02:34:08.283Z,5.80
2023-04-15T02:36:35.733Z,5.70
2023-04-15T02:39:04.361Z,5.70
2023-04-15T02:41:31.525Z,5.70
2023-04-15T02:43:59.035Z,5.70
2023-04-15T02:46:27.589Z,5.70
2023-04-15T02:48:54.844Z,5.70
2023-04-15T02:51:23.982Z,5.70
2023-04-15T02:53:51.103Z,5.80
2023-04-15T02:56:19.888Z,5.70
2023-04-15T02:58:50.678Z,5.60
2023-04-15T03:01:18.121Z,5.70
2023-04-15T03:03:45.710Z,5.50
2023-04-15T03:06:13.021Z,5.50
2023-04-15T03:08:40.106Z,5.50
2023-04-15T03:11:08.626Z,5.50
2023-04-15T03:13:37.006Z,5.50
2023-04-15T03:16:11.332Z,5.60
2023-04-15T03:18:38.911Z,5.50
2023-04-15T03:21:06.717Z,5.60
2023-04-15T03:23:36.800Z,5.60
2023-04-15T03:26:04.588Z,5.60
2023-04-15T03:28:33.293Z,5.60
2023-04-15T03:31:01.413Z,5.60
2023-04-15T03:33:28.861Z,5.60
2023-04-15T03:35:56.036Z,5.50
2023-04-15T03:38:23.146Z,5.50
2023-04-15T03:40:50.374Z,5.50
2023-04-15T03:43:17.469Z,5.60
2023-04-15T03:45:44.528Z,5.50
2023-04-15T03:48:17.914Z,5.50
2023-04-15T03:50:46.189Z,5.50
2023-04-15T03:53:13.187Z,5.50
2023-04-15T03:55:40.346Z,5.50
2023-04-15T03:58:07.378Z,5.50
2023-04-15T04:00:34.395Z,5.50
2023-04-15T04:03:01.818Z,5.50
2023-04-15T04:05:29.030Z,5.50
2023-04-15T04:07:56.038Z,5.40
2023-04-15T04:10:23.093Z,5.40
2023-04-15T04:12:50.121Z,5.40
2023-04-15T04:15:17.198Z,5.40
2023-04-15T04:17:44.344Z,5.40
2023-04-15T04:20:12.399Z,5.40
2023-04-15T04:22:40.707Z,5.40
2023-04-15T04:25:08.758Z,5.30
2023-04-15T04:27:36.373Z,5.40
2023-04-15T04:30:03.887Z,5.30
2023-04-15T04:32:31.057Z,5.40
2023-04-15T04:34:58.126Z,5.40
2023-04-15T04:37:25.719Z,5.40
2023-04-15T04:39:52.707Z,5.50
2023-04-15T04:42:19.806Z,5.50
2023-04-15T04:44:47.238Z,5.50
2023-04-15T04:47:14.223Z,5.50
2023-04-15T04:49:41.620Z,5.50
2023-04-15T04:52:08.804Z,5.50
2023-04-15T04:54:35.899Z,5.50
2023-04-15T04:57:03.079Z,5.50
2023-04-15T04:59:30.075Z,5.50
2023-04-15T05:01:57.300Z,5.50
2023-04-15T05:04:24.498Z,5.60
2023-04-15T05:06:51.802Z,5.70
2023-04-15T05:09:19.166Z,5.70
2023-04-15T05:11:46.236Z,5.70
2023-04-15T05:14:13.309Z,5.70
2023-04-15T05:16:40.373Z,5.80
2023-04-15T05:19:07.956Z,5.80
2023-04-15T05:21:35.343Z,5.80
2023-04-15T05:24:03.901Z,5.90
2023-04-15T05:26:31.560Z,5.90
2023-04-15T05:28:58.767Z,5.90
2023-04-15T05:31:26.133Z,6.00
2023-04-15T05:33:53.306Z,6.10
2023-04-15T05:36:20.388Z,6.20
2023-04-15T05:38:47.528Z,6.20
2023-04-15T05:41:18.406Z,6.30
2023-04-15T05:43:46.817Z,6.30
2023-04-15T05:46:13.934Z,6.30
2023-04-15T05:48:41.712Z,6.40
2023-04-15T05:51:09.321Z,6.50
2023-04-15T05:53:36.502Z,6.60
2023-04-15T05:56:03.669Z,6.60
2023-04-15T05:58:31.549Z,6.60
2023-04-15T06:00:58.877Z,6.70
2023-04-15T06:03:26.449Z,6.80
2023-04-15T06:05:54.378Z,6.90
2023-04-15T06:08:21.653Z,7.00
2023-04-15T06:10:48.779Z,7.10
2023-04-15T06:13:17.118Z,7.20
2023-04-15T06:15:44.291Z,7.30
2023-04-15T06:18:13.123Z,7.50
2023-04-15T06:20:40.510Z,7.60
2023-04-15T06:23:07.644Z,7.80
2023-04-15T06:25:34.673Z,7.80
2023-04-15T06:28:01.785Z,8.10
2023-04-15T06:30:28.891Z,8.00
2023-04-15T06:32:56.327Z,8.10
2023-04-15T06:35:23.371Z,8.20
2023-04-15T06:37:50.576Z,8.40
2023-04-15T06:40:17.752Z,8.50
2023-04-15T06:42:44.895Z,8.50
2023-04-15T06:45:12.147Z,8.60
2023-04-15T06:47:39.207Z,8.60
2023-04-15T06:50:06.715Z,8.70
2023-04-15T06:52:33.692Z,8.70
2023-04-15T06:55:02.188Z,8.70
2023-04-15T06:57:29.226Z,8.70
2023-04-15T06:59:56.598Z,8.70
2023-04-15T07:02:23.803Z,8.70
2023-04-15T07:04:51.129Z,8.80
2023-04-15T07:07:18.336Z,8.90
2023-04-15T07:09:45.402Z,8.80
2023-04-15T10:20:13.257Z,11.00
2023-04-15T10:22:41.963Z,11.00
2023-04-15T10:25:09.897Z,11.00
2023-04-15T10:27:37.125Z,10.90
2023-04-15T10:30:05.670Z,10.60
2023-04-15T10:32:33.117Z,10.50
2023-04-15T10:35:01.104Z,10.20
2023-04-15T10:37:38.720Z,10.30
2023-04-15T10:40:29.299Z,10.30
2023-04-15T10:45:27.515Z,10.30
2023-04-15T10:48:03.352Z,10.30
2023-04-15T10:50:34.420Z,10.70
2023-04-15T10:53:04.872Z,10.60
2023-04-15T10:55:34.660Z,10.50
2023-04-15T10:58:02.622Z,10.40
2023-04-15T11:00:31.673Z,10.20
2023-04-15T11:03:09.808Z,10.10
2023-04-15T11:05:42.919Z,10.10
2023-04-15T11:10:37.418Z,10.00
2023-04-15T11:13:15.668Z,10.10
2023-04-15T11:18:23.222Z,10.10
2023-04-15T11:20:52.713Z,10.10
2023-04-15T11:23:31.613Z,10.00
2023-04-15T11:26:00.195Z,9.80
2023-04-15T11:28:29.192Z,9.80
2023-04-15T11:30:56.964Z,9.70
2023-04-15T11:33:25.017Z,9.70
2023-04-15T11:35:55.404Z,9.80
2023-04-15T11:38:22.860Z,9.70
2023-04-15T11:40:51.787Z,9.70
2023-04-15T11:43:21.251Z,9.70
2023-04-15T11:45:59.297Z,9.70
2023-04-15T11:48:34.307Z,9.70
2023-04-15T11:51:03.381Z,9.70
2023-04-15T11:53:51.167Z,9.70
2023-04-15T11:56:23.553Z,9.60
2023-04-15T11:58:57.213Z,9.50
2023-04-15T12:01:39.390Z,9.60
2023-04-15T12:04:25.459Z,9.60
2023-04-15T12:06:53.102Z,9.50
2023-04-15T12:09:21.895Z,9.50
2023-04-15T12:11:55.645Z,9.40
2023-04-15T12:14:29.849Z,9.50
2023-04-15T12:17:05.046Z,9.50
2023-04-15T12:19:36.377Z,9.60
2023-04-15T12:22:10.072Z,9.50
2023-04-15T12:24:38.619Z,9.40
2023-04-15T12:27:12.988Z,9.40
2023-04-15T12:29:42.008Z,9.40
2023-04-15T12:32:10.429Z,9.30
2023-04-15T12:34:39.510Z,9.20
2023-04-15T12:37:11.026Z,9.10
2023-04-15T12:39:40.687Z,9.30
2023-04-15T12:42:09.059Z,9.20
2023-04-15T12:44:37.264Z,9.00
2023-04-15T12:47:04.905Z,9.10
2023-04-15T12:49:33.559Z,9.00
2023-04-15T12:52:02.706Z,8.90
2023-04-15T12:54:31.616Z,9.00
2023-04-15T12:56:59.402Z,8.80
2023-04-15T12:59:26.541Z,8.70
2023-04-15T13:04:22.001Z,8.90
2023-04-15T13:06:49.539Z,8.80
2023-04-15T13:09:16.602Z,9.00
2023-04-15T13:11:43.747Z,8.90
2023-04-15T13:14:14.001Z,8.90
2023-04-15T13:16:41.595Z,8.90
2023-04-15T13:19:08.906Z,8.90
2023-04-15T13:21:36.485Z,8.80
2023-04-15T13:24:04.868Z,8.90
2023-04-15T13:26:32.324Z,8.90
2023-04-15T13:29:00.027Z,8.90
2023-04-15T13:31:27.326Z,8.90
2023-04-15T13:33:54.529Z,8.90
2023-04-15T13:36:21.654Z,9.00
2023-04-15T13:38:51.110Z,8.90
2023-04-15T13:41:18.965Z,8.90
2023-04-15T13:43:46.338Z,8.90
2023-04-15T13:46:13.605Z,9.00
2023-04-15T13:48:40.895Z,8.90
2023-04-15T13:51:07.939Z,8.90
2023-04-15T13:53:38.735Z,9.00
2023-04-15T13:56:10.067Z,9.00
2023-04-15T13:58:38.289Z,8.90
2023-04-15T14:01:07.104Z,9.00
2023-04-15T14:03:38.170Z,8.90
2023-04-15T14:06:06.417Z,8.90
2023-04-15T14:10:58.940Z,8.90
2023-04-15T14:13:43.460Z,8.90
2023-04-15T14:16:24.469Z,9.00
2023-04-15T14:19:02.315Z,9.10
2023-04-15T14:21:49.492Z,9.20
2023-04-15T14:24:16.718Z,9.00
2023-04-15T14:26:52.506Z,8.90
2023-04-15T14:29:24.600Z,8.90
2023-04-15T14:32:23.437Z,9.00
2023-04-15T14:37:52.994Z,9.10
2023-04-15T14:40:30.976Z,9.00
2023-04-15T14:43:00.699Z,9.10
2023-04-15T14:45:37.251Z,9.00
2023-04-15T14:48:06.517Z,9.10
2023-04-15T14:50:35.344Z,9.10
2023-04-15T14:53:05.890Z,9.10
2023-04-15T14:55:41.291Z,9.10
2023-04-15T14:58:21.364Z,9.00
2023-04-15T15:01:02.531Z,9.10
2023-04-15T15:03:30.809Z,9.00
2023-04-15T15:06:06.989Z,9.00
2023-04-15T15:08:38.954Z,9.00
2023-04-15T15:11:18.018Z,8.90
2023-04-15T15:13:47.640Z,9.00
2023-04-15T15:16:28.408Z,9.10
2023-04-15T15:19:06.293Z,9.10
2023-04-15T15:22:06.521Z,9.20
2023-04-15T15:24:31.308Z,9.10
2023-04-15T15:26:59.623Z,9.00
2023-04-15T15:29:30.225Z,9.10
2023-04-15T15:32:29.598Z,9.10
2023-04-15T15:35:12.011Z,9.10
2023-04-15T15:38:31.516Z,9.00
2023-04-15T15:40:32.716Z,9.00
2023-04-15T15:43:07.049Z,8.90
2023-04-15T15:45:58.518Z,8.90
2023-04-15T15:48:57.121Z,8.90
2023-04-15T15:51:56.648Z,8.80
2023-04-15T15:54:36.758Z,8.80
2023-04-15T15:57:06.854Z,8.80
2023-04-15T15:59:48.393Z,8.80
2023-04-15T16:02:45.875Z,8.80
2023-04-15T16:05:14.366Z,8.70
2023-04-15T16:08:41.683Z,8.70
2023-04-15T16:10:45.784Z,8.70
2023-04-15T16:13:59.187Z,8.60
2023-04-15T16:16:30.676Z,8.70
2023-04-15T16:19:06.456Z,8.60
2023-04-15T16:21:48.615Z,8.60
2023-04-15T16:24:27.292Z,8.60
2023-04-15T16:26:59.368Z,8.60
2023-04-15T16:30:09.505Z,8.50
2023-04-15T16:32:35.904Z,8.50
2023-04-15T16:35:08.257Z,8.50
2023-04-15T16:38:10.093Z,8.40
2023-04-15T16:40:46.265Z,8.50
2023-04-15T16:43:13.591Z,8.40
2023-04-15T16:46:35.044Z,8.40
2023-04-15T16:50:03.872Z,8.40
2023-04-15T16:52:14.572Z,8.40
2023-04-15T16:55:09.685Z,8.40
2023-04-15T16:57:58.818Z,8.40
2023-04-15T17:00:59.834Z,8.40
2023-04-15T17:03:42.528Z,8.40
2023-04-15T17:06:24.598Z,8.40
2023-04-15T17:09:05.919Z,8.40
2023-04-15T17:11:50.684Z,8.40
2023-04-15T17:14:21.999Z,8.30
2023-04-15T17:16:56.344Z,8.30
2023-04-15T17:19:34.013Z,8.30
2023-04-15T17:22:07.332Z,8.30
2023-04-15T17:25:41.151Z,8.30
2023-04-15T17:27:53.572Z,8.30
2023-04-15T17:30:46.149Z,8.30
2023-04-15T17:33:59.940Z,8.30
2023-04-15T17:36:22.969Z,8.30
2023-04-15T17:39:12.236Z,8.30
2023-04-15T17:41:44.334Z,8.30
2023-04-15T17:44:17.528Z,8.30
2023-04-15T17:46:55.166Z,8.20
2023-04-15T17:49:40.554Z,8.20
2023-04-15T17:52:28.119Z,8.20
2023-04-15T17:55:29.266Z,8.20
2023-04-15T17:58:15.903Z,8.20
2023-04-15T18:00:54.108Z,8.20
2023-04-15T18:03:38.966Z,8.20
2023-04-15T18:06:29.665Z,8.20
2023-04-15T18:09:13.312Z,8.20
2023-04-15T18:11:54.764Z,8.20
2023-04-15T18:14:34.737Z,8.20
2023-04-15T18:17:15.621Z,8.20
2023-04-15T18:19:45.985Z,8.20
2023-04-15T18:22:31.669Z,8.20
2023-04-15T18:25:04.583Z,8.10
2023-04-15T18:27:49.685Z,8.10
2023-04-15T18:30:22.707Z,8.10
2023-04-15T18:32:56.305Z,8.00
2023-04-15T18:35:38.419Z,8.10
2023-04-15T18:38:14.167Z,8.00
2023-04-15T18:40:48.619Z,8.10
2023-04-15T18:43:22.416Z,8.10
2023-04-15T18:45:54.636Z,8.10
2023-04-15T18:48:27.264Z,8.10
2023-04-15T18:51:07.665Z,8.10
2023-04-15T18:53:51.050Z,8.10
2023-04-15T18:56:34.272Z,8.10
2023-04-15T18:59:29.782Z,8.10
2023-04-15T19:02:08.478Z,8.10
2023-04-15T19:04:43.044Z,8.10
2023-04-15T19:07:35.142Z,8.10
2023-04-15T19:10:29.693Z,8.10
2023-04-15T19:16:07.342Z,8.00
2023-04-15T19:18:40.358Z,8.10
2023-04-15T19:21:10.555Z,8.10
2023-04-15T19:23:55.875Z,8.10
2023-04-15T19:26:58.725Z,8.10
2023-04-15T19:29:46.267Z,8.10
2023-04-15T19:32:19.718Z,8.10
2023-04-15T19:34:58.615Z,8.10
2023-04-15T19:37:38.511Z,8.10
2023-04-15T19:40:11.616Z,8.10
2023-04-15T19:43:12.268Z,8.10
2023-04-15T19:45:37.097Z,8.10
2023-04-15T19:48:06.278Z,8.10
2023-04-15T19:50:34.954Z,8.10
2023-04-15T19:53:26.491Z,8.10
2023-04-15T19:55:57.075Z,8.20
2023-04-15T19:58:44.344Z,8.20
2023-04-15T20:01:15.765Z,8.20
2023-04-15T20:04:11.728Z,8.20
2023-04-15T20:06:41.642Z,8.10
2023-04-15T20:09:21.062Z,8.10
2023-04-15T20:12:49.871Z,8.20
2023-04-15T20:21:22.767Z,8.20
2023-04-15T20:23:59.471Z,8.20
2023-04-15T20:26:43.996Z,8.20
2023-04-15T20:29:25.485Z,8.20
2023-04-15T20:32:09.815Z,8.20
2023-04-15T20:37:40.183Z,8.20
2023-04-15T20:40:12.095Z,8.20
2023-04-15T20:43:04.860Z,8.20
2023-04-15T20:45:58.780Z,8.20
2023-04-15T20:48:53.901Z,8.20
2023-04-15T20:51:57.450Z,8.20
2023-04-15T20:54:25.553Z,8.30
2023-04-15T20:57:00.120Z,8.20
2023-04-15T20:59:30.007Z,8.30
2023-04-15T21:01:57.524Z,8.30
2023-04-15T21:04:24.627Z,8.20
2023-04-15T21:06:53.462Z,8.20
2023-04-15T21:09:20.407Z,8.30
2023-04-15T21:12:01.051Z,8.30
2023-04-15T21:14:29.438Z,8.30
2023-04-15T21:17:01.036Z,8.20
2023-04-15T21:19:28.821Z,8.30
2023-04-15T21:21:55.787Z,8.30
2023-04-15T21:24:22.755Z,8.30
2023-04-15T21:26:57.673Z,8.30
2023-04-15T21:29:34.932Z,8.30
2023-04-15T21:32:16.914Z,8.30
2023-04-15T21:35:00.503Z,8.30
2023-04-15T21:38:03.461Z,8.20
2023-04-15T21:40:42.561Z,8.30
2023-04-15T21:43:13.853Z,8.30
2023-04-15T21:45:44.307Z,8.30
2023-04-15T21:48:31.618Z,8.30
2023-04-15T21:51:33.331Z,8.30
2023-04-15T21:54:09.314Z,8.20
2023-04-15T21:56:50.443Z,8.20
2023-04-15T21:59:53.346Z,8.20
2023-04-15T22:02:21.127Z,8.20
2023-04-15T22:04:55.004Z,8.20
2023-04-15T22:07:45.392Z,8.20
2023-04-15T22:10:24.444Z,8.30
2023-04-15T22:13:17.089Z,8.20
2023-04-15T22:15:57.302Z,8.20
2023-04-15T22:19:04.490Z,8.20
2023-04-15T22:24:40.092Z,8.20
2023-04-15T22:27:12.697Z,8.20
2023-04-15T22:29:48.193Z,8.20
2023-04-15T22:32:52.519Z,8.20
2023-04-15T22:35:28.916Z,8.20
2023-04-15T22:38:23.052Z,8.20
2023-04-15T22:41:34.058Z,8.20
2023-04-15T22:44:29.859Z,8.20
2023-04-15T22:47:02.184Z,8.20
2023-04-15T22:49:43.588Z,8.20
2023-04-15T22:52:29.262Z,8.20
2023-04-15T22:55:24.075Z,8.20
2023-04-15T22:58:23.697Z,8.20
2023-04-15T23:01:41.988Z,8.20
2023-04-15T23:03:57.658Z,8.20
2023-04-15T23:07:11.606Z,8.20
2023-04-15T23:12:51.465Z,8.20
2023-04-15T23:15:25.572Z,8.10
2023-04-15T23:18:05.344Z,8.10
2023-04-15T23:20:46.658Z,8.20
2023-04-15T23:26:15.506Z,8.20
2023-04-15T23:28:46.212Z,8.20
2023-04-15T23:31:16.521Z,8.20
2023-04-15T23:34:27.208Z,8.20
2023-04-15T23:37:04.764Z,8.10
2023-04-15T23:39:35.228Z,8.20
2023-04-15T23:42:18.271Z,8.10
2023-04-15T23:45:01.303Z,8.20
2023-04-15T23:47:47.073Z,8.20
2023-04-15T23:50:24.730Z,8.20
2023-04-15T23:53:14.230Z,8.20
2023-04-15T23:55:56.742Z,8.20
2023-04-15T23:58:24.042Z,8.20
